Time;durP1;ratioP1;P1;durP2;ratioP2;P2;SDS_P1;SDS_P2;PMS_P1;PMS_P2;Temp;Humidity;BMP_temperature;BMP_pressure;BME280_temperature;BME280_humidity;BME280_pressure;Samples;Min_cycle;Max_cycle;Signal;HPM_P1;HPM_P2
2023/06/18 00:01:28;;;;;;;14.73;11.52;;;;;;;-144.87;100.00;61487.56;5031164;28;20045;-70
2023/06/18 00:03:54;;;;;;;14.70;11.43;;;;;;;-144.87;100.00;61487.56;5021646;28;20083;-70
2023/06/18 00:06:21;;;;;;;14.40;11.23;;;;;;;-144.87;100.00;61487.56;5004848;28;20034;-70
2023/06/18 00:08:47;;;;;;;15.82;11.55;;;;;;;-144.87;100.00;61487.56;5015809;28;20029;-70
2023/06/18 00:11:13;;;;;;;18.52;11.90;;;;;;;-144.87;100.00;61487.56;5019852;28;20060;-70
2023/06/18 00:13:39;;;;;;;15.45;11.80;;;;;;;-144.87;100.00;61487.56;5013723;28;20042;-70
2023/06/18 00:16:06;;;;;;;17.08;11.82;;;;;;;-144.87;100.00;61487.56;5018883;28;20179;-70
2023/06/18 00:18:33;;;;;;;20.00;12.55;;;;;;;-144.87;100.00;61487.56;4999286;28;20046;-69
2023/06/18 00:21:00;;;;;;;14.20;11.50;;;;;;;-144.87;100.00;61487.56;5014645;28;20045;-70
2023/06/18 00:23:26;;;;;;;18.65;12.65;;;;;;;-144.87;100.00;61487.56;5017197;28;20513;-69
2023/06/18 00:25:52;;;;;;;23.00;13.35;;;;;;;-144.87;100.00;61487.56;5037619;28;20018;-71
2023/06/18 00:28:19;;;;;;;17.73;12.45;;;;;;;-144.87;100.00;61487.56;5035909;28;20165;-70
2023/06/18 00:30:45;;;;;;;22.35;13.38;;;;;;;-144.87;100.00;61487.56;5037758;28;20025;-71
2023/06/18 00:33:11;;;;;;;19.20;13.52;;;;;;;-144.87;100.00;61487.56;5039674;28;20433;-70
2023/06/18 00:35:39;;;;;;;22.15;12.70;;;;;;;-144.87;100.00;61487.56;5035044;28;20038;-71
2023/06/18 00:38:05;;;;;;;22.17;13.50;;;;;;;-144.87;100.00;61487.56;5037180;28;20091;-70
2023/06/18 00:40:33;;;;;;;18.05;11.38;;;;;;;-144.87;100.00;61487.56;5037188;28;20025;-69
2023/06/18 00:42:59;;;;;;;18.25;12.18;;;;;;;-144.87;100.00;61487.56;5018431;28;20397;-70
2023/06/18 00:45:28;;;;;;;18.95;12.00;;;;;;;-144.87;100.00;61487.56;5015515;28;20049;-70
2023/06/18 00:47:55;;;;;;;18.88;11.20;;;;;;;-144.87;100.00;61487.56;5016759;28;20073;-70
2023/06/18 00:50:26;;;;;;;19.83;12.10;;;;;;;-144.87;100.00;61487.56;4999827;28;20033;-70
2023/06/18 00:52:59;;;;;;;19.27;11.50;;;;;;;-144.87;100.00;61487.56;5018212;28;20040;-70
2023/06/18 00:55:30;;;;;;;20.33;10.90;;;;;;;-144.87;100.00;61487.56;5006103;28;20033;-70
2023/06/18 00:58:02;;;;;;;17.17;11.02;;;;;;;-144.87;100.00;61487.56;5021373;28;20067;-70
2023/06/18 01:00:32;;;;;;;14.88;10.35;;;;;;;-144.87;100.00;61487.56;5011569;28;20033;-69
2023/06/18 01:02:59;;;;;;;16.55;10.23;;;;;;;-144.87;100.00;61487.56;5022091;28;20042;-70
2023/06/18 01:05:26;;;;;;;21.75;12.43;;;;;;;-144.87;100.00;61487.56;5018604;28;20038;-69
2023/06/18 01:07:53;;;;;;;14.55;10.70;;;;;;;-144.87;100.00;61487.56;5014697;28;20113;-70
2023/06/18 01:10:20;;;;;;;18.05;11.20;;;;;;;-144.87;100.00;61487.56;5016979;28;20086;-68
2023/06/18 01:12:48;;;;;;;20.77;10.70;;;;;;;-144.87;100.00;61487.56;5012988;28;20021;-69
2023/06/18 01:15:18;;;;;;;19.80;11.05;;;;;;;-144.87;100.00;61487.56;5005432;28;20109;-68
2023/06/18 01:17:48;;;;;;;16.88;11.82;;;;;;;-144.87;100.00;61487.56;5008983;28;20136;-70
2023/06/18 01:20:15;;;;;;;19.27;11.60;;;;;;;-144.87;100.00;61487.56;4991899;28;20389;-70
2023/06/18 01:22:59;;;;;;;18.67;11.93;;;;;;;-144.87;100.00;61487.56;4979847;28;20468;-70
2023/06/18 01:25:26;;;;;;;16.98;10.90;;;;;;;-144.87;100.00;61487.56;4979936;28;20038;-70
2023/06/18 01:27:54;;;;;;;20.10;11.02;;;;;;;-144.87;100.00;61487.56;4969692;28;20108;-70
2023/06/18 01:30:21;;;;;;;20.83;11.55;;;;;;;-144.87;100.00;61487.56;4978736;28;20054;-69
2023/06/18 01:32:48;;;;;;;22.13;12.70;;;;;;;-144.87;100.00;61487.56;4984692;28;20428;-70
2023/06/18 01:35:17;;;;;;;20.48;12.02;;;;;;;-144.87;100.00;61487.56;4981047;28;20526;-70
2023/06/18 01:37:50;;;;;;;24.60;12.48;;;;;;;-144.87;100.00;61487.56;4983478;28;20042;-70
2023/06/18 01:40:32;;;;;;;18.02;11.90;;;;;;;-144.87;100.00;61487.56;5002751;28;20033;-70
2023/06/18 01:43:34;;;;;;;19.80;11.70;;;;;;;-144.87;100.00;61487.56;4998390;28;20113;-70
2023/06/18 01:46:02;;;;;;;19.38;12.52;;;;;;;-144.87;100.00;61487.56;4984098;28;20435;-70
2023/06/18 01:48:44;;;;;;;16.35;10.93;;;;;;;-144.87;100.00;61487.56;4973275;28;20125;-69
2023/06/18 01:51:11;;;;;;;18.50;11.77;;;;;;;-144.87;100.00;61487.56;4984020;28;20032;-69
2023/06/18 01:53:38;;;;;;;17.38;11.98;;;;;;;-144.87;100.00;61487.56;5010485;28;20062;-69
2023/06/18 01:56:04;;;;;;;21.20;12.73;;;;;;;-144.87;100.00;61487.56;4980598;28;20054;-71
2023/06/18 01:58:32;;;;;;;16.30;12.32;;;;;;;-144.87;100.00;61487.56;4968804;28;20499;-70
2023/06/18 02:00:58;;;;;;;19.27;13.48;;;;;;;-144.87;100.00;61487.56;4978090;28;20049;-69
2023/06/18 02:03:25;;;;;;;22.50;11.77;;;;;;;-144.87;100.00;61487.56;5001478;28;20065;-70
2023/06/18 02:05:51;;;;;;;17.20;12.32;;;;;;;-144.87;100.00;61487.56;4957413;28;20129;-70
2023/06/18 02:08:18;;;;;;;18.42;12.18;;;;;;;-144.87;100.00;61487.56;4974591;28;20038;-70
2023/06/18 02:10:46;;;;;;;17.63;12.00;;;;;;;-144.87;100.00;61487.56;4999379;28;20033;-69
2023/06/18 02:13:13;;;;;;;18.27;11.75;;;;;;;-144.87;100.00;61487.56;5000718;28;20116;-70
2023/06/18 02:15:41;;;;;;;15.13;11.68;;;;;;;-144.87;100.00;61487.56;4971153;28;20037;-70
2023/06/18 02:18:08;;;;;;;18.27;10.63;;;;;;;-144.87;100.00;61487.56;4978400;28;20045;-70
2023/06/18 02:20:35;;;;;;;20.60;11.50;;;;;;;-144.87;100.00;61487.56;4999077;28;20190;-70
2023/06/18 02:23:01;;;;;;;17.88;11.30;;;;;;;-144.87;100.00;61487.56;5000149;28;20037;-70
2023/06/18 02:25:32;;;;;;;26.95;12.35;;;;;;;-144.87;100.00;61487.56;4995762;28;20487;-70
2023/06/18 02:28:06;;;;;;;16.38;11.75;;;;;;;-144.87;100.00;61487.56;4990194;28;20031;-69
2023/06/18 02:30:33;;;;;;;19.40;12.38;;;;;;;-144.87;100.00;61487.56;4991098;28;20033;-70
2023/06/18 02:33:02;;;;;;;15.68;11.65;;;;;;;-144.87;100.00;61487.56;4995100;28;20026;-70
2023/06/18 02:35:29;;;;;;;20.38;11.60;;;;;;;-144.87;100.00;61487.56;4992961;28;20046;-71
2023/06/18 02:37:56;;;;;;;18.20;12.00;;;;;;;-144.87;100.00;61487.56;4975877;28;20060;-70
2023/06/18 02:40:22;;;;;;;13.90;11.75;;;;;;;-144.87;100.00;61487.56;5001775;28;20076;-70
2023/06/18 02:42:50;;;;;;;18.35;12.20;;;;;;;-144.87;100.00;61487.56;4989970;28;20034;-70
2023/06/18 02:45:22;;;;;;;20.95;12.07;;;;;;;-144.87;100.00;61487.56;4982236;28;20141;-71
2023/06/18 02:47:49;;;;;;;17.10;11.55;;;;;;;-144.87;100.00;61487.56;4987606;28;20103;-70
2023/06/18 02:50:17;;;;;;;24.38;12.57;;;;;;;-144.87;100.00;61487.56;4983991;28;20160;-70
2023/06/18 02:52:48;;;;;;;16.85;12.20;;;;;;;-144.87;100.00;61487.56;4982125;28;20042;-70
2023/06/18 02:55:14;;;;;;;14.43;11.50;;;;;;;-144.87;100.00;61487.56;4981259;28;20046;-71
2023/06/18 02:57:41;;;;;;;18.08;12.30;;;;;;;-144.87;100.00;61487.56;4996964;28;20129;-70
2023/06/18 03:00:12;;;;;;;22.50;12.43;;;;;;;-144.87;100.00;61487.56;4980393;28;20034;-70
2023/06/18 03:02:42;;;;;;;17.00;11.70;;;;;;;-144.87;100.00;61487.56;4980923;28;20034;-69
2023/06/18 03:05:12;;;;;;;15.43;10.85;;;;;;;-144.87;100.00;61487.56;4983614;28;20034;-70
2023/06/18 03:07:40;;;;;;;20.02;11.05;;;;;;;-144.87;100.00;61487.56;4983803;28;20411;-69
2023/06/18 03:10:08;;;;;;;21.13;11.02;;;;;;;-144.87;100.00;61487.56;4967711;28;20080;-70
2023/06/18 03:12:35;;;;;;;17.38;10.57;;;;;;;-144.87;100.00;61487.56;4968266;28;20322;-71
2023/06/18 03:15:07;;;;;;;15.63;9.98;;;;;;;-144.87;100.00;61487.56;4996937;28;20022;-71
2023/06/18 03:17:33;;;;;;;14.75;10.30;;;;;;;-144.87;100.00;61487.56;4993741;28;20057;-70
2023/06/18 03:20:00;;;;;;;17.45;11.20;;;;;;;-144.87;100.00;61487.56;4990672;28;20030;-71
2023/06/18 03:22:26;;;;;;;13.52;10.63;;;;;;;-144.87;100.00;61487.56;4984873;28;20042;-70
2023/06/18 03:24:53;;;;;;;14.95;10.05;;;;;;;-144.87;100.00;61487.56;4978825;28;20442;-69
2023/06/18 03:27:19;;;;;;;14.80;10.23;;;;;;;-144.87;100.00;61487.56;5002194;28;20152;-70
2023/06/18 03:29:46;;;;;;;15.32;10.75;;;;;;;-144.87;100.00;61487.56;4988584;28;20067;-70
2023/06/18 03:32:14;;;;;;;14.88;10.07;;;;;;;-144.87;100.00;61487.56;4978840;28;20130;-70
2023/06/18 03:34:42;;;;;;;17.92;10.13;;;;;;;-144.87;100.00;61487.56;4968297;28;20104;-70
2023/06/18 03:37:11;;;;;;;18.73;11.07;;;;;;;-144.87;100.00;61487.56;4973963;28;20155;-70
2023/06/18 03:39:38;;;;;;;17.63;10.82;;;;;;;-144.87;100.00;61487.56;4996104;28;20626;-70
2023/06/18 03:42:04;;;;;;;17.15;11.75;;;;;;;-144.87;100.00;61487.56;4985674;28;20105;-70
2023/06/18 03:44:31;;;;;;;15.68;11.77;;;;;;;-144.87;100.00;61487.56;4970148;28;20041;-71
2023/06/18 03:46:57;;;;;;;17.35;12.07;;;;;;;-144.87;100.00;61487.56;4994314;28;20070;-69
2023/06/18 03:49:23;;;;;;;15.25;11.57;;;;;;;-144.87;100.00;61487.56;4963399;28;20031;-70
2023/06/18 03:51:50;;;;;;;23.40;12.95;;;;;;;-144.87;100.00;61487.56;4947287;28;20050;-70
2023/06/18 03:54:17;;;;;;;16.52;12.48;;;;;;;-144.87;100.00;61487.56;5008444;28;20041;-70
2023/06/18 03:56:47;;;;;;;18.95;11.77;;;;;;;-144.87;100.00;61487.56;4981589;28;20038;-70
2023/06/18 03:59:14;;;;;;;17.92;10.77;;;;;;;-144.87;100.00;61487.56;5002344;28;20072;-70
2023/06/18 04:01:42;;;;;;;15.70;11.70;;;;;;;-144.87;100.00;61487.56;4986849;28;20037;-71
2023/06/18 04:04:08;;;;;;;20.50;11.50;;;;;;;-144.87;100.00;61487.56;4972241;28;20042;-70
2023/06/18 04:06:35;;;;;;;17.17;11.50;;;;;;;-144.87;100.00;61487.56;4984102;28;20328;-70
2023/06/18 04:09:02;;;;;;;14.68;10.93;;;;;;;-144.87;100.00;61487.56;4978559;28;20172;-70
2023/06/18 04:11:28;;;;;;;16.55;11.13;;;;;;;-144.87;100.00;61487.56;4971496;28;20415;-68
2023/06/18 04:13:54;;;;;;;16.65;10.63;;;;;;;-144.87;100.00;61487.56;5003019;28;20491;-69
2023/06/18 04:16:21;;;;;;;16.10;10.88;;;;;;;-144.87;100.00;61487.56;4971231;28;20073;-70
2023/06/18 04:18:47;;;;;;;13.55;10.70;;;;;;;-144.87;100.00;61487.56;4998829;28;20041;-70
2023/06/18 04:21:13;;;;;;;17.95;10.95;;;;;;;-144.87;100.00;61487.56;4968371;28;20038;-70
2023/06/18 04:23:43;;;;;;;19.00;11.27;;;;;;;-144.87;100.00;61487.56;4993805;28;20121;-71
2023/06/18 04:26:10;;;;;;;14.80;11.90;;;;;;;-144.87;100.00;61487.56;4977391;28;20092;-68
2023/06/18 04:28:37;;;;;;;14.43;11.57;;;;;;;-144.87;100.00;61487.56;4983049;28;20048;-69
2023/06/18 04:31:04;;;;;;;13.32;10.88;;;;;;;-144.87;100.00;61487.56;4986497;28;20030;-69
2023/06/18 04:33:31;;;;;;;16.27;11.70;;;;;;;-144.87;100.00;61487.56;4985076;28;20073;-71
2023/06/18 04:35:57;;;;;;;20.50;11.70;;;;;;;-144.87;100.00;61487.56;4989803;28;20026;-69
2023/06/18 04:38:23;;;;;;;20.95;11.98;;;;;;;-144.87;100.00;61487.56;4956077;28;21016;-71
2023/06/18 04:40:50;;;;;;;16.40;11.88;;;;;;;-144.87;100.00;61487.56;4977623;28;20034;-69
2023/06/18 04:43:18;;;;;;;20.77;12.27;;;;;;;-144.87;100.00;61487.56;5002034;28;20056;-71
2023/06/18 04:45:48;;;;;;;15.90;11.05;;;;;;;-144.87;100.00;61487.56;4977972;28;20039;-70
2023/06/18 04:48:18;;;;;;;15.23;11.73;;;;;;;-144.87;100.00;61487.56;4972550;28;20030;-71
2023/06/18 04:50:46;;;;;;;13.40;10.25;;;;;;;-144.87;100.00;61487.56;4983117;28;20026;-70
2023/06/18 04:53:12;;;;;;;15.00;10.80;;;;;;;-144.87;100.00;61487.56;4996178;28;20105;-70
2023/06/18 04:55:38;;;;;;;16.60;10.23;;;;;;;-144.87;100.00;61487.56;4982886;28;20042;-70
2023/06/18 04:58:05;;;;;;;18.35;10.93;;;;;;;-144.87;100.00;61487.56;4992641;28;20313;-70
2023/06/18 05:00:33;;;;;;;16.23;10.30;;;;;;;-144.87;100.00;61487.56;4969978;28;20133;-70
2023/06/18 05:03:00;;;;;;;16.48;9.98;;;;;;;-144.87;100.00;61487.56;4993699;28;20037;-70
2023/06/18 05:05:27;;;;;;;16.30;11.23;;;;;;;-144.87;100.00;61487.56;4978894;28;20049;-71
2023/06/18 05:07:55;;;;;;;12.73;10.65;;;;;;;-144.87;100.00;61487.56;4994811;28;20133;-70
2023/06/18 05:10:22;;;;;;;14.85;9.80;;;;;;;-144.87;100.00;61487.56;4972462;28;20029;-70
2023/06/18 05:12:49;;;;;;;15.10;9.30;;;;;;;-144.87;100.00;61487.56;4983936;28;20026;-70
2023/06/18 05:15:16;;;;;;;15.88;9.65;;;;;;;-144.87;100.00;61487.56;4989175;28;20042;-70
2023/06/18 05:17:42;;;;;;;15.15;9.30;;;;;;;-144.87;100.00;61487.56;4979555;28;20030;-70
2023/06/18 05:20:12;;;;;;;13.90;10.20;;;;;;;-144.87;100.00;61487.56;4976752;28;20041;-69
2023/06/18 05:22:40;;;;;;;14.98;10.75;;;;;;;-144.87;100.00;61487.56;5001878;28;20205;-71
2023/06/18 05:25:07;;;;;;;14.55;9.95;;;;;;;-144.87;100.00;61487.56;4980978;28;20041;-71
2023/06/18 05:27:35;;;;;;;17.15;9.50;;;;;;;-144.87;100.00;61487.56;4981875;28;20141;-71
2023/06/18 05:30:02;;;;;;;13.80;10.35;;;;;;;-144.87;100.00;61487.56;4977816;28;20026;-71
2023/06/18 05:32:30;;;;;;;14.65;10.30;;;;;;;-144.87;100.00;61487.56;4968406;28;20030;-71
2023/06/18 05:34:57;;;;;;;16.63;10.98;;;;;;;-144.87;100.00;61487.56;4979314;28;20030;-70
2023/06/18 05:37:24;;;;;;;19.10;9.95;;;;;;;-144.87;100.00;61487.56;4982779;28;20156;-70
2023/06/18 05:39:52;;;;;;;14.10;9.63;;;;;;;-144.87;100.00;61487.56;4983414;28;20030;-69
2023/06/18 05:42:19;;;;;;;14.55;9.73;;;;;;;-144.87;100.00;61487.56;4965333;28;20034;-69
2023/06/18 05:44:47;;;;;;;13.05;9.02;;;;;;;-144.87;100.00;61487.56;4979142;28;20034;-70
2023/06/18 05:47:13;;;;;;;16.02;9.00;;;;;;;-144.87;100.00;61487.56;4977986;28;20026;-71
2023/06/18 05:49:41;;;;;;;13.63;10.07;;;;;;;-144.87;100.00;61487.56;4975566;28;20022;-70
2023/06/18 05:52:08;;;;;;;13.93;9.90;;;;;;;-144.87;100.00;61487.56;4965611;28;20030;-68
2023/06/18 05:54:35;;;;;;;13.93;10.10;;;;;;;-144.87;100.00;61487.56;4975668;28;20034;-70
2023/06/18 05:57:01;;;;;;;14.27;9.75;;;;;;;-144.87;100.00;61487.56;4989931;28;20034;-71
2023/06/18 05:59:28;;;;;;;14.57;10.15;;;;;;;-144.87;100.00;61487.56;4981879;28;20656;-72
2023/06/18 06:02:02;;;;;;;18.70;9.90;;;;;;;-144.87;100.00;61487.56;4982458;28;20061;-71
2023/06/18 06:04:29;;;;;;;16.45;10.30;;;;;;;-144.87;100.00;61487.56;5009147;28;20191;-72
2023/06/18 06:06:56;;;;;;;16.23;10.82;;;;;;;-144.87;100.00;61487.56;4980813;28;20042;-71
2023/06/18 06:09:22;;;;;;;18.63;10.77;;;;;;;-144.87;100.00;61487.56;4987553;28;20018;-70
2023/06/18 06:11:48;;;;;;;16.85;10.80;;;;;;;-144.87;100.00;61487.56;5019103;28;20058;-69
2023/06/18 06:14:15;;;;;;;19.10;10.30;;;;;;;-144.87;100.00;61487.56;5016990;28;20097;-71
2023/06/18 06:16:42;;;;;;;12.82;9.90;;;;;;;-144.87;100.00;61487.56;5039659;28;20534;-71
2023/06/18 06:19:09;;;;;;;18.35;10.23;;;;;;;-144.87;100.00;61487.56;5036591;28;20038;-72
2023/06/18 06:21:35;;;;;;;16.88;10.55;;;;;;;-144.87;100.00;61487.56;5031300;28;20057;-70
2023/06/18 06:24:02;;;;;;;14.52;9.88;;;;;;;-144.87;100.00;61487.56;5022482;28;20069;-72
2023/06/18 06:26:28;;;;;;;15.55;9.77;;;;;;;-144.87;100.00;61487.56;5018273;28;20048;-70
2023/06/18 06:28:55;;;;;;;15.68;9.90;;;;;;;-144.87;100.00;61487.56;5018352;28;20176;-72
2023/06/18 06:31:21;;;;;;;13.43;10.23;;;;;;;-144.87;100.00;61487.56;5015216;28;20037;-75
2023/06/18 06:33:48;;;;;;;14.70;10.48;;;;;;;-144.87;100.00;61487.56;5011778;28;20034;-71
2023/06/18 06:36:14;;;;;;;15.98;10.35;;;;;;;-144.87;100.00;61487.56;5013478;28;20040;-70
2023/06/18 06:38:42;;;;;;;14.60;10.82;;;;;;;-144.87;100.00;61487.56;5011742;28;20065;-69
2023/06/18 06:41:08;;;;;;;18.83;10.20;;;;;;;-144.87;100.00;61487.56;5021254;28;20022;-69
2023/06/18 06:43:34;;;;;;;22.95;10.55;;;;;;;-144.87;100.00;61487.56;5019611;28;20125;-70
2023/06/18 06:46:11;;;;;;;17.85;9.90;;;;;;;-144.87;100.00;61487.56;5023251;28;20037;-71
2023/06/18 06:48:56;;;;;;;16.67;10.38;;;;;;;-144.87;100.00;61487.56;4992795;28;20369;-71
2023/06/18 06:51:38;;;;;;;15.77;10.20;;;;;;;-144.87;100.00;61487.56;5017980;28;20048;-71
2023/06/18 06:54:11;;;;;;;16.85;10.32;;;;;;;-144.87;100.00;61487.56;5008338;28;20042;-71
2023/06/18 06:56:38;;;;;;;17.58;10.75;;;;;;;-144.87;100.00;61487.56;4998770;28;20034;-70
2023/06/18 06:59:04;;;;;;;18.85;10.52;;;;;;;-144.87;100.00;61487.56;5008145;28;20033;-71
2023/06/18 07:01:31;;;;;;;17.73;10.90;;;;;;;-144.87;100.00;61487.56;5020924;28;20046;-71
2023/06/18 07:03:57;;;;;;;17.67;11.32;;;;;;;-144.87;100.00;61487.56;4999177;28;20049;-70
2023/06/18 07:06:23;;;;;;;19.63;11.60;;;;;;;-144.87;100.00;61487.56;5019166;28;20041;-70
2023/06/18 07:08:52;;;;;;;22.42;12.02;;;;;;;-144.87;100.00;61487.56;5016138;28;20041;-71
2023/06/18 07:11:18;;;;;;;17.25;11.50;;;;;;;-144.87;100.00;61487.56;5014674;28;20042;-70
2023/06/18 07:13:44;;;;;;;24.88;12.43;;;;;;;-144.87;100.00;61487.56;5023143;28;20038;-71
2023/06/18 07:16:11;;;;;;;18.38;12.15;;;;;;;-144.87;100.00;61487.56;5026516;28;20057;-69
2023/06/18 07:18:37;;;;;;;18.92;12.93;;;;;;;-144.87;100.00;61487.56;5018068;28;20233;-70
2023/06/18 07:21:03;;;;;;;18.75;12.60;;;;;;;-144.87;100.00;61487.56;5028405;28;20038;-70
2023/06/18 07:23:29;;;;;;;18.60;12.25;;;;;;;-144.87;100.00;61487.56;5028882;28;20060;-73
2023/06/18 07:25:56;;;;;;;18.15;12.82;;;;;;;-144.87;100.00;61487.56;5023847;28;20037;-70
2023/06/18 07:28:22;;;;;;;22.25;12.15;;;;;;;-144.87;100.00;61487.56;5014538;28;21259;-73
2023/06/18 07:30:48;;;;;;;19.00;12.45;;;;;;;-144.87;100.00;61487.56;5017908;28;20040;-69
2023/06/18 07:33:15;;;;;;;20.67;12.32;;;;;;;-144.87;100.00;61487.56;5016747;28;20164;-69
2023/06/18 07:35:41;;;;;;;21.23;13.63;;;;;;;-144.87;100.00;61487.56;5020155;28;20029;-70
2023/06/18 07:38:07;;;;;;;21.05;11.85;;;;;;;-144.87;100.00;61487.56;5013944;28;20033;-70
2023/06/18 07:40:36;;;;;;;19.33;12.77;;;;;;;-144.87;100.00;61487.56;5018230;28;20042;-68
2023/06/18 07:43:03;;;;;;;19.67;12.00;;;;;;;-144.87;100.00;61487.56;5018128;28;20040;-70
2023/06/18 07:45:29;;;;;;;18.30;11.32;;;;;;;-144.87;100.00;61487.56;5016334;28;20045;-71
2023/06/18 07:47:55;;;;;;;19.92;13.00;;;;;;;-144.87;100.00;61487.56;5016882;28;20037;-70
2023/06/18 07:50:22;;;;;;;19.65;12.02;;;;;;;-144.87;100.00;61487.56;5012219;28;20041;-71
2023/06/18 07:52:48;;;;;;;23.35;12.95;;;;;;;-144.87;100.00;61487.56;5011006;28;20418;-71
2023/06/18 07:55:15;;;;;;;18.92;11.98;;;;;;;-144.87;100.00;61487.56;5015743;28;20037;-71
2023/06/18 07:57:41;;;;;;;17.77;12.90;;;;;;;-144.87;100.00;61487.56;5031472;28;20130;-72
2023/06/18 08:00:08;;;;;;;20.00;13.60;;;;;;;-144.87;100.00;61487.56;5030776;28;21169;-71
2023/06/18 08:02:41;;;;;;;23.63;12.90;;;;;;;-144.87;100.00;61487.56;5026947;28;20030;-70
2023/06/18 08:05:07;;;;;;;17.58;12.60;;;;;;;-144.87;100.00;61487.56;5030342;28;20041;-72
2023/06/18 08:07:34;;;;;;;17.42;12.27;;;;;;;-144.87;100.00;61487.56;5017244;28;20182;-70
2023/06/18 08:10:00;;;;;;;17.13;12.00;;;;;;;-144.87;100.00;61487.56;5013314;28;20034;-70
2023/06/18 08:12:26;;;;;;;18.80;12.80;;;;;;;-144.87;100.00;61487.56;5013381;28;20029;-71
2023/06/18 08:14:53;;;;;;;20.25;13.85;;;;;;;-144.87;100.00;61487.56;5031466;28;20088;-70
2023/06/18 08:17:20;;;;;;;18.13;13.48;;;;;;;-144.87;100.00;61487.56;5013136;28;21755;-70
2023/06/18 08:19:47;;;;;;;21.05;14.10;;;;;;;-144.87;100.00;61487.56;5019209;28;20334;-71
2023/06/18 08:22:15;;;;;;;20.85;13.40;;;;;;;-144.87;100.00;61487.56;5018646;28;20128;-70
2023/06/18 08:24:41;;;;;;;19.23;13.57;;;;;;;-144.87;100.00;61487.56;5001456;28;20569;-71
2023/06/18 08:27:08;;;;;;;20.30;13.10;;;;;;;-144.87;100.00;61487.56;5014679;28;20060;-71
2023/06/18 08:29:34;;;;;;;18.17;12.57;;;;;;;-144.87;100.00;61487.56;5017494;28;20095;-71
2023/06/18 08:32:04;;;;;;;20.35;12.38;;;;;;;-144.87;100.00;61487.56;5016881;28;20063;-69
2023/06/18 08:34:32;;;;;;;19.48;11.73;;;;;;;-144.87;100.00;61487.56;5024193;28;20467;-69
2023/06/18 08:36:59;;;;;;;17.52;12.05;;;;;;;-144.87;100.00;61487.56;5028131;28;20109;-72
2023/06/18 08:39:29;;;;;;;18.83;11.80;;;;;;;-144.87;100.00;61487.56;5022323;28;20057;-71
2023/06/18 08:41:59;;;;;;;16.53;11.40;;;;;;;-144.87;100.00;61487.56;5018038;28;20037;-70
2023/06/18 08:44:27;;;;;;;18.70;11.10;;;;;;;-144.87;100.00;61487.56;5022481;28;20862;-71
2023/06/18 08:47:00;;;;;;;20.35;10.98;;;;;;;-144.87;100.00;61487.56;5010556;28;20050;-71
2023/06/18 08:49:36;;;;;;;17.23;10.18;;;;;;;-144.87;100.00;61487.56;5020114;28;20046;-70
2023/06/18 08:52:09;;;;;;;18.00;10.65;;;;;;;-144.87;100.00;61487.56;5014423;28;20029;-71
2023/06/18 08:54:37;;;;;;;16.10;9.88;;;;;;;-144.87;100.00;61487.56;5017852;28;20022;-71
2023/06/18 08:57:26;;;;;;;13.10;9.15;;;;;;;-144.87;100.00;61487.56;5012512;28;20025;-71
2023/06/18 08:59:54;;;;;;;13.05;9.82;;;;;;;-144.87;100.00;61487.56;5023665;28;20026;-70
2023/06/18 09:02:21;;;;;;;13.20;8.70;;;;;;;-144.87;100.00;61487.56;5012975;28;20034;-71
2023/06/18 09:04:47;;;;;;;13.98;8.35;;;;;;;-144.87;100.00;61487.56;4996864;28;20034;-71
2023/06/18 09:07:14;;;;;;;15.60;8.23;;;;;;;-144.87;100.00;61487.56;5019108;28;20056;-71
2023/06/18 09:09:40;;;;;;;14.02;8.63;;;;;;;-144.87;100.00;61487.56;5018066;28;20091;-71
2023/06/18 09:12:07;;;;;;;16.95;8.85;;;;;;;-144.87;100.00;61487.56;5022051;28;20061;-73
2023/06/18 09:14:33;;;;;;;13.88;8.27;;;;;;;-144.87;100.00;61487.56;5029505;28;20045;-71
2023/06/18 09:17:00;;;;;;;12.63;8.40;;;;;;;-144.87;100.00;61487.56;5031828;28;20026;-72
2023/06/18 09:19:27;;;;;;;15.00;8.95;;;;;;;-144.87;100.00;61487.56;5026554;28;20164;-70
2023/06/18 09:21:53;;;;;;;27.38;9.18;;;;;;;-144.87;100.00;61487.56;5032485;28;20176;-72
2023/06/18 09:24:21;;;;;;;14.23;8.65;;;;;;;-144.87;100.00;61487.56;4996537;28;20605;-71
2023/06/18 09:27:07;;;;;;;16.83;9.02;;;;;;;-144.87;100.00;61487.56;5028748;28;20044;-72
2023/06/18 09:29:40;;;;;;;14.68;8.63;;;;;;;-144.87;100.00;61487.56;5025191;28;20037;-72
2023/06/18 09:32:12;;;;;;;21.95;8.07;;;;;;;-144.87;100.00;61487.56;5028980;28;20044;-72
2023/06/18 09:34:40;;;;;;;12.80;8.30;;;;;;;-144.87;100.00;61487.56;5028739;28;20033;-71
2023/06/18 09:37:07;;;;;;;12.80;8.75;;;;;;;-144.87;100.00;61487.56;5030313;28;20079;-72
2023/06/18 09:39:35;;;;;;;12.32;8.00;;;;;;;-144.87;100.00;61487.56;5013341;28;20057;-72
2023/06/18 09:42:13;;;;;;;19.60;8.95;;;;;;;-144.87;100.00;61487.56;5025351;28;20040;-72
2023/06/18 09:44:43;;;;;;;16.38;9.13;;;;;;;-144.87;100.00;61487.56;5026353;28;20101;-72
2023/06/18 09:47:11;;;;;;;15.18;8.30;;;;;;;-144.87;100.00;61487.56;5010606;28;20042;-72
2023/06/18 09:49:42;;;;;;;13.88;8.10;;;;;;;-144.87;100.00;61487.56;5013970;28;20029;-71
2023/06/18 09:52:09;;;;;;;10.90;7.45;;;;;;;-144.87;100.00;61487.56;5037562;28;20065;-70
2023/06/18 09:54:40;;;;;;;8.90;7.93;;;;;;;-144.87;100.00;61487.56;5010088;28;20061;-71
2023/06/18 09:57:07;;;;;;;10.30;7.30;;;;;;;-144.87;100.00;61487.56;5026472;28;20172;-71
2023/06/18 09:59:33;;;;;;;15.60;8.13;;;;;;;-144.87;100.00;61487.56;5020734;28;20044;-72
2023/06/18 10:02:00;;;;;;;10.27;7.13;;;;;;;-144.87;100.00;61487.56;5014723;28;20437;-71
2023/06/18 10:04:26;;;;;;;12.90;9.25;;;;;;;-144.87;100.00;61487.56;5012669;28;20038;-71
2023/06/18 10:07:06;;;;;;;10.50;8.98;;;;;;;-144.87;100.00;61487.56;5013900;28;20046;-70
2023/06/18 10:09:34;;;;;;;12.00;8.45;;;;;;;-144.87;100.00;61487.56;5012442;28;20104;-72
2023/06/18 10:12:03;;;;;;;13.50;10.77;;;;;;;-144.87;100.00;61487.56;5012733;28;20061;-72
2023/06/18 10:14:31;;;;;;;11.77;9.25;;;;;;;-144.87;100.00;61487.56;5010219;28;20057;-71
2023/06/18 10:17:06;;;;;;;15.70;9.25;;;;;;;-144.87;100.00;61487.56;5014450;28;20087;-72
2023/06/18 10:20:00;;;;;;;10.77;8.93;;;;;;;-144.87;100.00;61487.56;5014634;28;20034;-71
2023/06/18 10:22:28;;;;;;;20.20;10.18;;;;;;;-144.87;100.00;61487.56;4989491;28;20116;-71
2023/06/18 10:25:02;;;;;;;12.70;9.32;;;;;;;-144.87;100.00;61487.56;4977655;28;20042;-71
2023/06/18 10:27:29;;;;;;;13.13;9.57;;;;;;;-144.87;100.00;61487.56;5014108;28;20045;-71
2023/06/18 10:30:00;;;;;;;15.98;9.80;;;;;;;-144.87;100.00;61487.56;5008744;28;20129;-71
2023/06/18 10:32:28;;;;;;;16.58;10.68;;;;;;;-144.87;100.00;61487.56;5011037;28;20049;-72
2023/06/18 10:34:57;;;;;;;11.70;9.80;;;;;;;-144.87;100.00;61487.56;5003893;28;20102;-71
2023/06/18 10:37:25;;;;;;;14.68;10.02;;;;;;;-144.87;100.00;61487.56;4978979;28;20046;-71
2023/06/18 10:39:52;;;;;;;10.60;9.50;;;;;;;-144.87;100.00;61487.56;4994730;28;20039;-71
2023/06/18 10:42:19;;;;;;;13.15;9.85;;;;;;;-144.87;100.00;61487.56;5007704;28;20034;-71
2023/06/18 10:44:55;;;;;;;13.68;9.82;;;;;;;-144.87;100.00;61487.56;4992021;28;20039;-71
2023/06/18 10:47:23;;;;;;;14.65;10.20;;;;;;;-144.87;100.00;61487.56;4976242;28;20030;-72
2023/06/18 10:50:08;;;;;;;14.93;10.07;;;;;;;-144.87;100.00;61487.56;4992882;28;20037;-72
2023/06/18 10:52:36;;;;;;;11.93;9.07;;;;;;;-144.87;100.00;61487.56;4993204;28;20034;-72
2023/06/18 10:55:24;;;;;;;12.18;9.38;;;;;;;-144.87;100.00;61487.56;4993462;28;20108;-71
2023/06/18 10:58:01;;;;;;;14.45;9.23;;;;;;;-144.87;100.00;61487.56;5003135;28;20053;-71
2023/06/18 11:00:35;;;;;;;14.43;8.98;;;;;;;-144.87;100.00;61487.56;4997224;28;20209;-72
2023/06/18 11:03:02;;;;;;;14.38;10.30;;;;;;;-144.87;100.00;61487.56;5021156;28;20046;-71